Home > Products > Valid Products > MTR

000
SAUS46 KSGX 051153
MTRCZZ
METAR KCZZ 051152Z AUTO 06018G28KT 09/M08 A3009 RMK AO1 PK WND
04028/1136 SLP174 T00941078 10100 21006 56010





000
SAUS46 KSGX 051054
MTRCZZ
METAR KCZZ 051052Z AUTO 06014G19KT 09/M07 A3010 RMK AO1 SLP177
T00891072





000
SAUS46 KSGX 051054
MTRCZZ
METAR KCZZ 051052Z AUTO 06014G19KT 09/M07 A3010 RMK AO1 SLP177
T00891072





000
SAUS46 KSGX 050953
MTRCZZ
METAR KCZZ 050952Z AUTO 05011KT 08/M07 A3011 RMK AO1 SLP182
T00831067





000
SAUS46 KSGX 050953
MTRCZZ
METAR KCZZ 050952Z AUTO 05011KT 08/M07 A3011 RMK AO1 SLP182
T00831067





000
SAUS46 KSGX 050853
MTRCZZ
METAR KCZZ 050852Z AUTO 34005KT 09/M08 A3013 RMK AO1 SLP186
T00891078 58002





000
SAUS46 KSGX 050853
MTRCZZ
METAR KCZZ 050852Z AUTO 34005KT 09/M08 A3013 RMK AO1 SLP186
T00891078 58002





000
SAUS46 KSGX 050753
MTRCZZ
METAR KCZZ 050752Z AUTO 03005KT 06/M07 A3013 RMK AO1 SLP192
T00561067 401561006





000
SAUS46 KSGX 050653
MTRCZZ
METAR KCZZ 050652Z AUTO 00000KT 02/M04 A3013 RMK AO1 SLP195
T00171039





000
SAUS46 KSGX 050653
MTRCZZ
METAR KCZZ 050652Z AUTO 00000KT 02/M04 A3013 RMK AO1 SLP195
T00171039





000
SAUS46 KSGX 050553
MTRCZZ
METAR KCZZ 050552Z AUTO 00000KT 02/M04 A3013 RMK AO1 SLP196
T00171044 10144 20006 51011





000
SAUS46 KSGX 050553
MTRCZZ
METAR KCZZ 050552Z AUTO 00000KT 02/M04 A3013 RMK AO1 SLP196
T00171044 10144 20006 51011





000
SAUS46 KSGX 050453
MTRCZZ
METAR KCZZ 050452Z AUTO 04005KT 03/M05 A3013 RMK AO1 SLP194
T00281050





000
SAUS46 KSGX 050453
MTRCZZ
METAR KCZZ 050452Z AUTO 04005KT 03/M05 A3013 RMK AO1 SLP194
T00281050





000
SAUS46 KSGX 050353
MTRCZZ
METAR KCZZ 050352Z AUTO 08006KT 04/M04 A3012 RMK AO1 SLP196
T00441044





000
SAUS46 KSGX 050353
MTRCZZ
METAR KCZZ 050352Z AUTO 08006KT 04/M04 A3012 RMK AO1 SLP196
T00441044





000
SAUS46 KSGX 050253
MTRCZZ
METAR KCZZ 050252Z AUTO 05004KT 08/M06 A3010 RMK AO1 SLP188
T00781056 53019





000
SAUS46 KSGX 050153
MTRCZZ
METAR KCZZ 050152Z AUTO 05008KT 11/M06 A3007 RMK AO1 SLP178
T01061061





000
SAUS46 KSGX 050153
MTRCZZ
METAR KCZZ 050152Z AUTO 05008KT 11/M06 A3007 RMK AO1 SLP178
T01061061





000
SAUS46 KSGX 050053
MTRCZZ
METAR KCZZ 050052Z AUTO 08013KT 13/M06 A3005 RMK AO1 SLP167
T01331061





000
SAUS46 KSGX 050053
MTRCZZ
METAR KCZZ 050052Z AUTO 08013KT 13/M06 A3005 RMK AO1 SLP167
T01331061





000
SAUS46 KSGX 042353
MTRCZZ
METAR KCZZ 042352Z AUTO 08013KT 14/M06 A3004 RMK AO1 SLP162
T01441061 10156 20117 55001





000
SAUS46 KSGX 042253
MTRCZZ
METAR KCZZ 042252Z AUTO 05012G21KT 15/M05 A3003 RMK AO1 SLP158
T01501050





000
SAUS46 KSGX 042153
MTRCZZ
METAR KCZZ 042152Z AUTO 07012G21KT 14/M04 A3003 RMK AO1 SLP159
T01441044





000
SAUS46 KSGX 042058
MTRCZZ
METAR KCZZ 042052Z AUTO 05013G22KT 14/M03 A3004 RMK AO1 SLP162
T01441033 50001





000
SAUS46 KSGX 042058
MTRCZZ
METAR KCZZ 042052Z AUTO 05013G22KT 14/M03 A3004 RMK AO1 SLP162
T01441033 50001





000
SAUS46 KSGX 041958
MTRCZZ
METAR KCZZ 041952Z AUTO 04013KT 13/M03 A3005 RMK AO1 SLP167
T01331028





000
SAUS46 KSGX 041858
MTRCZZ
METAR KCZZ 041852Z AUTO 06015G19KT 13/M01 A3005 RMK AO1 SLP166
T01281006





000
SAUS46 KSGX 041758
MTRCZZ
METAR KCZZ 041752Z AUTO 05019G24KT 12/00 A3003 RMK AO1 PK WND
05027/1718 SLP162 T01170000 10122 21006 51018





000
SAUS46 KSGX 041658
MTRCZZ
METAR KCZZ 041652Z AUTO 04019G26KT 11/01 A3002 RMK AO1 PK WND
04026/1652 SLP156 T01110011





000
SAUS46 KSGX 041658
MTRCZZ
METAR KCZZ 041652Z AUTO 04019G26KT 11/01 A3002 RMK AO1 PK WND
04026/1652 SLP156 T01110011





000
SAUS46 KSGX 041558
MTRCZZ
METAR KCZZ 041552Z AUTO 00000KT 04/03 A3000 RMK AO1 SLP154 T00440028





000
SAUS46 KSGX 041458
MTRCZZ
METAR KCZZ 041452Z AUTO VRB03KT 01/M01 A2998 RMK AO1 SLP147
T00061006 53017





000
SAUS46 KSGX 041402
MTRCZZ
METAR KCZZ 041352Z AUTO 00000KT 00/M01 A2995 RMK AO1 SLP138
T00001011





000
SAUS46 KSGX 041259
MTRCZZ
METAR KCZZ 041252Z AUTO 04007KT 00/M01 A2994 RMK AO1 SLP133
T00001011





000
SAUS46 KSGX 041153
MTRCZZ
METAR KCZZ 041152Z AUTO 05005KT 00/M01 A2992 RMK AO1 SLP128 70014
T00001011 10022 20000 57001





000
SAUS46 KSGX 041153
MTRCZZ
METAR KCZZ 041152Z AUTO 05005KT 00/M01 A2992 RMK AO1 SLP128 70014
T00001011 10022 20000 57001





000
SAUS46 KSGX 041053
MTRCZZ
METAR KCZZ 041052Z AUTO 05005KT 00/M01 A2992 RMK AO1 SLP127
T00001006





000
SAUS46 KSGX 040953
MTRCZZ
METAR KCZZ 040952Z AUTO 05006KT 01/M01 A2993 RMK AO1 SLP128
T00061006





000
SAUS46 KSGX 040853
MTRCZZ
METAR KCZZ 040852Z AUTO 05004KT 01/00 A2993 RMK AO1 SLP125 T00110000
51006





000
SAUS46 KSGX 040753
MTRCZZ
METAR KCZZ 040752Z AUTO 08007KT 01/00 A2992 RMK AO1 SLP123 T00110000
401390000





000
SAUS46 KSGX 040653
MTRCZZ
METAR KCZZ 040652Z AUTO 05004KT 01/01 A2992 RMK AO1 SLP124 T00110006





000
SAUS46 KSGX 040653
MTRCZZ
METAR KCZZ 040652Z AUTO 05004KT 01/01 A2992 RMK AO1 SLP124 T00110006





000
SAUS46 KSGX 040553
MTRCZZ
METAR KCZZ 040552Z AUTO 06007KT 02/02 A2991 RMK AO1 SLP120 60001
T00220017 10094 20022 53014





000
SAUS46 KSGX 040553
MTRCZZ
METAR KCZZ 040552Z AUTO 06007KT 02/02 A2991 RMK AO1 SLP120 60001
T00220017 10094 20022 53014





000
SAUS46 KSGX 040454
MTRCZZ
METAR KCZZ 040452Z AUTO 06003KT 03/03 A2989 RMK AO1 SLP115 T00330028





000
SAUS46 KSGX 040353
MTRCZZ
METAR KCZZ 040352Z AUTO 00000KT 05/04 A2988 RMK AO1 SLP110 T00500039





000
SAUS46 KSGX 040353
MTRCZZ
METAR KCZZ 040352Z AUTO 00000KT 05/04 A2988 RMK AO1 SLP110 T00500039





000
SAUS46 KSGX 040253
MTRCZZ
METAR KCZZ 040252Z AUTO 00000KT 07/06 A2987 RMK AO1 SLP107 P0001
60001 T00720056 53008





000
SAUS46 KSGX 040153
MTRCZZ
METAR KCZZ 040152Z AUTO 33006KT 08/06 A2985 RMK AO1 SLP102 T00830056





000
SAUS46 KSGX 040153
MTRCZZ
METAR KCZZ 040152Z AUTO 33006KT 08/06 A2985 RMK AO1 SLP102 T00830056





000
SAUS46 KSGX 040053
MTRCZZ
METAR KCZZ 040052Z AUTO 34005KT 09/06 A2984 RMK AO1 SLP096 T00890056





000
SAUS46 KSGX 040053
MTRCZZ
METAR KCZZ 040052Z AUTO 34005KT 09/06 A2984 RMK AO1 SLP096 T00890056





000
SAUS46 KSGX 032353
MTRCZZ
METAR KCZZ 032352Z AUTO 00000KT 09/07 A2984 RMK AO1 SLP098 P0001
60013 T00890067 10139 20083 58002





000
SAUS46 KSGX 032353
MTRCZZ
METAR KCZZ 032352Z AUTO 00000KT 09/07 A2984 RMK AO1 SLP098 P0001
60013 T00890067 10139 20083 58002





000
SAUS46 KSGX 032253
MTRCZZ
METAR KCZZ 032252Z AUTO 35008KT 09/05 A2985 RMK AO1 SLP100 P0012
T00940050





000
SAUS46 KSGX 032253
MTRCZZ
METAR KCZZ 032252Z AUTO 35008KT 09/05 A2985 RMK AO1 SLP100 P0012
T00940050





000
SAUS46 KSGX 032153
MTRCZZ
METAR KCZZ 032152Z AUTO 27004KT 11/04 A2984 RMK AO1 SLP096 T01060044





000
SAUS46 KSGX 032153
MTRCZZ
METAR KCZZ 032152Z AUTO 27004KT 11/04 A2984 RMK AO1 SLP096 T01060044





000
SAUS46 KSGX 032054
MTRCZZ
METAR KCZZ 032052Z AUTO VRB06KT 13/04 A2984 RMK AO1 SLP097 T01330044
58015





000
SAUS46 KSGX 031954
MTRCZZ
METAR KCZZ 031952Z AUTO 11004KT 12/03 A2987 RMK AO1 SLP104 T01170033





000
SAUS46 KSGX 031954
MTRCZZ
METAR KCZZ 031952Z AUTO 11004KT 12/03 A2987 RMK AO1 SLP104 T01170033





000
SAUS46 KSGX 031854
MTRCZZ
METAR KCZZ 031852Z AUTO 29004KT 12/03 A2988 RMK AO1 SLP107 T01170028





000
SAUS46 KSGX 031754
MTRCZZ
METAR KCZZ 031752Z AUTO 21003KT 10/04 A2989 RMK AO1 SLP113 T01000039
10106 20000 50002





000
SAUS46 KSGX 031754
MTRCZZ
METAR KCZZ 031752Z AUTO 21003KT 10/04 A2989 RMK AO1 SLP113 T01000039
10106 20000 50002





000
SAUS46 KSGX 031653
MTRCZZ
METAR KCZZ 031652Z AUTO 00000KT 09/04 A2990 RMK AO1 SLP116 T00940044





000
SAUS46 KSGX 031653
MTRCZZ
METAR KCZZ 031652Z AUTO 00000KT 09/04 A2990 RMK AO1 SLP116 T00940044





000
SAUS46 KSGX 031554
MTRCZZ
METAR KCZZ 031552Z AUTO 08003KT 07/04 A2989 RMK AO1 SLP113 T00720044





000
SAUS46 KSGX 031454
MTRCZZ
METAR KCZZ 031452Z AUTO 35004KT 03/02 A2989 RMK AO1 SLP115 T00280022
53004





000
SAUS46 KSGX 031454
MTRCZZ
METAR KCZZ 031452Z AUTO 35004KT 03/02 A2989 RMK AO1 SLP115 T00280022
53004





000
SAUS46 KSGX 031353
MTRCZZ
METAR KCZZ 031352Z AUTO 01003KT 02/01 A2988 RMK AO1 SLP112 T00170011





000
SAUS46 KSGX 031353
MTRCZZ
METAR KCZZ 031352Z AUTO 01003KT 02/01 A2988 RMK AO1 SLP112 T00170011





000
SAUS46 KSGX 031254
MTRCZZ
METAR KCZZ 031252Z AUTO 00000KT 02/01 A2988 RMK AO1 SLP112 T00170011





000
SAUS46 KSGX 031154
MTRCZZ
METAR KCZZ 031152Z AUTO 05004KT 01/M01 A2987 RMK AO1 SLP110 70030
T00061006 10056 20006 56011





000
SAUS46 KSGX 031154
MTRCZZ
METAR KCZZ 031152Z AUTO 05004KT 01/M01 A2987 RMK AO1 SLP110 70030
T00061006 10056 20006 56011





000
SAUS46 KSGX 031053
MTRCZZ
METAR KCZZ 031052Z AUTO 06005KT 01/01 A2988 RMK AO1 SLP112 T00110006





000
SAUS46 KSGX 031053
MTRCZZ
METAR KCZZ 031052Z AUTO 06005KT 01/01 A2988 RMK AO1 SLP112 T00110006





000
SAUS46 KSGX 030953
MTRCZZ
METAR KCZZ 030952Z AUTO 05004KT 01/01 A2990 RMK AO1 SLP119 T00110006





000
SAUS46 KSGX 030853
MTRCZZ
METAR KCZZ 030852Z AUTO 07004KT 01/01 A2991 RMK AO1 SLP123 T00110011
58011





000
SAUS46 KSGX 030853
MTRCZZ
METAR KCZZ 030852Z AUTO 07004KT 01/01 A2991 RMK AO1 SLP123 T00110011
58011





000
SAUS46 KSGX 030753
MTRCZZ
METAR KCZZ 030752Z AUTO 36005KT 03/02 A2992 RMK AO1 SLP129 T00280017
400940022





000
SAUS46 KSGX 030753
MTRCZZ
METAR KCZZ 030752Z AUTO 36005KT 03/02 A2992 RMK AO1 SLP129 T00280017
400940022





000
SAUS46 KSGX 030653
MTRCZZ
METAR KCZZ 030652Z AUTO 00000KT 04/03 A2994 RMK AO1 SLP131 T00440033





000
SAUS46 KSGX 030653
MTRCZZ
METAR KCZZ 030652Z AUTO 00000KT 04/03 A2994 RMK AO1 SLP131 T00440033





000
SAUS46 KSGX 030553
MTRCZZ
METAR KCZZ 030552Z AUTO 06004KT 05/04 A2995 RMK AO1 SLP134 60002
T00500039 10089 20044 51008





000
SAUS46 KSGX 030553
MTRCZZ
METAR KCZZ 030552Z AUTO 06004KT 05/04 A2995 RMK AO1 SLP134 60002
T00500039 10089 20044 51008





000
SAUS46 KSGX 030453
MTRCZZ
METAR KCZZ 030452Z AUTO 00000KT 06/04 A2994 RMK AO1 SLP131 T00610044





000
SAUS46 KSGX 030453
MTRCZZ
METAR KCZZ 030452Z AUTO 00000KT 06/04 A2994 RMK AO1 SLP131 T00610044





000
SAUS46 KSGX 030353
MTRCZZ
METAR KCZZ 030352Z AUTO 20006KT 06/04 A2993 RMK AO1 SLP127 T00610044





000
SAUS46 KSGX 030353
MTRCZZ
METAR KCZZ 030352Z AUTO 20006KT 06/04 A2993 RMK AO1 SLP127 T00610044





000
SAUS46 KSGX 030253
MTRCZZ
METAR KCZZ 030252Z AUTO 21007KT 07/05 A2992 RMK AO1 SLP124 60002
T00670050 53017





000
SAUS46 KSGX 030153
MTRCZZ
METAR KCZZ 030152Z AUTO 25009KT 07/05 A2990 RMK AO1 SLP115 P0002
T00720050





000
SAUS46 KSGX 030153
MTRCZZ
METAR KCZZ 030152Z AUTO 25009KT 07/05 A2990 RMK AO1 SLP115 P0002
T00720050





000
SAUS46 KSGX 030053
MTRCZZ
METAR KCZZ 030052Z AUTO 29011KT 07/04 A2989 RMK AO1 WSHFT 2353
SLP112 T00670044





000
SAUS46 KSGX 030053
MTRCZZ
METAR KCZZ 030052Z AUTO 29011KT 07/04 A2989 RMK AO1 WSHFT 2353
SLP112 T00670044





000
SAUS46 KSGX 030012
MTRCZZ
SPECI KCZZ 030010Z AUTO 31015KT 07/04 A2987 RMK AO1 WSHFT 2353
T00670044





000
SAUS46 KSGX 030012
MTRCZZ
SPECI KCZZ 030010Z AUTO 31015KT 07/04 A2987 RMK AO1 WSHFT 2353
T00670044





000
SAUS46 KSGX 022353
MTRCZZ
METAR KCZZ 022352Z AUTO 24019G26KT 09/04 A2987 RMK AO1 PK WND
25026/2350 SLP103 60017 T00890039 10094 20050 56007





000
SAUS46 KSGX 022353
MTRCZZ
METAR KCZZ 022352Z AUTO 24019G26KT 09/04 A2987 RMK AO1 PK WND
25026/2350 SLP103 60017 T00890039 10094 20050 56007





000
SAUS46 KSGX 022253
MTRCZZ
METAR KCZZ 022252Z AUTO 23018G24KT 09/04 A2987 RMK AO1 PK WND
24027/2156 SLP104 T00940044





000
SAUS46 KSGX 022253
MTRCZZ
METAR KCZZ 022252Z AUTO 23018G24KT 09/04 A2987 RMK AO1 PK WND
24027/2156 SLP104 T00940044





000
SAUS46 KSGX 022153
MTRCZZ
METAR KCZZ 022152Z AUTO 23017G21KT 09/05 A2987 RMK AO1 SLP103
T00890050





000
SAUS46 KSGX 022153
MTRCZZ
METAR KCZZ 022152Z AUTO 23017G21KT 09/05 A2987 RMK AO1 SLP103
T00890050





000
SAUS46 KSGX 022053
MTRCZZ
METAR KCZZ 022052Z AUTO 22011KT 08/06 A2989 RMK AO1 SLP112 60017
T00780056 58005





000
SAUS46 KSGX 021953
MTRCZZ
METAR KCZZ 021952Z AUTO 29004KT 05/03 A2992 RMK AO1 SLP123 P0015
T00500033





000
SAUS46 KSGX 021853
MTRCZZ
METAR KCZZ 021852Z AUTO 20010KT 07/04 A2990 RMK AO1 SLP116 P0002
T00670039





000
SAUS46 KSGX 021853
MTRCZZ
METAR KCZZ 021852Z AUTO 20010KT 07/04 A2990 RMK AO1 SLP116 P0002
T00670039





000
SAUS46 KSGX 021753
MTRCZZ
METAR KCZZ 021752Z AUTO 22006KT 06/05 A2991 RMK AO1 SLP119 P0009
60011 T00610050 10072 20056 53012





000
SAUS46 KSGX 021753
MTRCZZ
METAR KCZZ 021752Z AUTO 22006KT 06/05 A2991 RMK AO1 SLP119 P0009
60011 T00610050 10072 20056 53012





000
SAUS46 KSGX 021653
MTRCZZ
METAR KCZZ 021652Z AUTO 22007KT 07/05 A2989 RMK AO1 SLP114 P0001
T00720050





000
SAUS46 KSGX 021653
MTRCZZ
METAR KCZZ 021652Z AUTO 22007KT 07/05 A2989 RMK AO1 SLP114 P0001
T00720050





000
SAUS46 KSGX 021555
MTRCZZ
METAR KCZZ 021552Z AUTO 23006KT 07/06 A2987 RMK AO1 SLP107 P0001
T00670056





000
SAUS46 KSGX 021555
MTRCZZ
METAR KCZZ 021552Z AUTO 23006KT 07/06 A2987 RMK AO1 SLP107 P0001
T00670056





000
SAUS46 KSGX 021453
MTRCZZ
METAR KCZZ 021452Z AUTO 23003KT 06/05 A2987 RMK AO1 SLP107 T00560050
53006





000
SAUS46 KSGX 021353
MTRCZZ
METAR KCZZ 021352Z AUTO 22009KT 06/05 A2986 RMK AO1 SLP102 T00610050





000
SAUS46 KSGX 021353
MTRCZZ
METAR KCZZ 021352Z AUTO 22009KT 06/05 A2986 RMK AO1 SLP102 T00610050





000
SAUS46 KSGX 021253
MTRCZZ
METAR KCZZ 021252Z AUTO 21006KT 06/05 A2985 RMK AO1 SLP099 T00610050





    US Dept of Commerce
    National Oceanic and Atmospheric Administration
    National Weather Service
    1325 East West Highway
    Silver Spring, MD 20910
    Page Author: NWS Internet Services Team
Disclaimer
Information Quality
Credits
Glossary
Privacy Policy
Freedom of Information Act (FOIA)
About Us
Career Opportunities